Surface observations / UK / EGOM

Quebec | Canada | USA | France | UK | Europe | Elsewhere

Display: Info & Location for EGOM | Help decoding METAR


Raw surface observations for station EGOM
EGOM 281750Z AUTO 15001KT 9999 BKN090/// 15/13 Q1014=
EGOM 281650Z AUTO 09003KT 9999 FEW015/// SCT090/// 15/12 Q1014=
EGOM 281550Z AUTO 08005KT 9999 SCT011/// SCT046/// 16/13 Q1014=
EGOM 281450Z AUTO 06006KT 9999 FEW006/// BKN020/// 14/13 Q1014 RERA=
EGOM 281350Z AUTO 05008KT 7000 BR FEW003/// BKN010/// 14/13 Q1013 RERA=
EGOM 281250Z AUTO 04008KT 9999 SCT008/// SCT016/// BKN033/// 15/13 Q1013=
EGOM 281150Z AUTO 04008KT 9999 BKN006/// BKN049/// 14/13 Q1012 REDZ=
EGOM 281050Z AUTO 06010KT 6000 -DZ SCT003/// BKN008/// 13/13 Q1012=
EGOM 280950Z AUTO 05007KT 9999 BKN003/// 13/12 Q1012 REDZ=
EGOM 280850Z AUTO 04008KT 9999 -DZ SCT004/// BKN012/// 12/12 Q1011=
EGOM 280750Z AUTO 05007KT 9000 RA FEW003/// BKN021/// 12/12 Q1011=
EGOM 280650Z AUTO 05009KT 9999 RA SCT003/// BKN022/// 12/12 Q1011=
EGOM 280550Z AUTO 04005KT 8000 RA BKN003/// SCT009/// 12/12 Q1011=
EGOM 280450Z AUTO 07008KT 5000 RA BKN003/// BKN016/// 12/12 Q1011=
EGOM 280350Z AUTO 08008KT 9999 -SHRA BKN003/// BKN015/// 12/12 Q1011=
EGOM 280250Z AUTO 08010KT 9999 OVC001/// 12/12 Q1011=
EGOM 280150Z AUTO 07008KT 9999 BKN003/// SCT038/// 12/12 Q1012 RERA=
EGOM 280050Z AUTO 07009KT 3400 +RA FEW001/// BKN037/// 12/12 Q1012=
EGOM 272350Z AUTO 07005KT 4600 DZ BKN004/// BKN012/// 12/12 Q1013=
EGOM 272250Z AUTO 08009KT 9999 BKN011/// SCT041/// BKN070/// 13/12 Q1014=
EGOM 272150Z AUTO 09011KT 9999 FEW013/// BKN070/// 13/11 Q1014=
EGOM 272050Z AUTO 12009KT 9999 FEW022/// BKN090/// 14/11 Q1014=
EGOM 271950Z AUTO 13010KT 9999 SCT013/// BKN070/// 15/12 Q1015=
EGOM 271850Z AUTO 09009KT 9999 BKN070/// 16/13 Q1014=
EGOM 271750Z AUTO 10010KT 9999 SCT090/// 17/12 Q1015=